Terminal Aerodrome Forecast
Issued by NWS King Salmon, AK

Home | Current Version | Previous Version | Text Only | Print | Product List | Glossary On
Versions: 1 2 3 4 5 6 7 8 9 10 11 12 13 14 15
000
FTAK31 PANC 292335
TAFAKN
TAF
PAKN 292335Z 3000/3024 34010G18KT P6SM SCT250
     FM300900 VRB04KT P6SM VCFG SKC
     FM301700 09006KT P6SM SKC=

USA.gov is the U.S. government's official web portal to all federal, state and local government web resources and services.